sensor_id;sensor_type;location;lat;lon;timestamp;temperature;humidity
1337;DHT22;662;48.814;9.318;2022-09-17T00:01:07;13.90;66.40
1337;DHT22;662;48.814;9.318;2022-09-17T00:03:34;13.90;66.60
1337;DHT22;662;48.814;9.318;2022-09-17T00:06:00;13.80;66.20
1337;DHT22;662;48.814;9.318;2022-09-17T00:08:26;13.80;65.80
1337;DHT22;662;48.814;9.318;2022-09-17T00:10:52;13.70;65.70
1337;DHT22;662;48.814;9.318;2022-09-17T00:13:18;13.70;66.00
1337;DHT22;662;48.814;9.318;2022-09-17T00:15:45;13.70;65.60
1337;DHT22;662;48.814;9.318;2022-09-17T00:18:12;13.70;65.50
1337;DHT22;662;48.814;9.318;2022-09-17T00:20:40;13.60;66.00
1337;DHT22;662;48.814;9.318;2022-09-17T00:23:07;13.70;66.30
1337;DHT22;662;48.814;9.318;2022-09-17T00:25:33;13.70;66.30
1337;DHT22;662;48.814;9.318;2022-09-17T00:27:59;13.70;66.40
1337;DHT22;662;48.814;9.318;2022-09-17T00:30:25;13.70;66.40
1337;DHT22;662;48.814;9.318;2022-09-17T00:32:50;13.70;66.40
1337;DHT22;662;48.814;9.318;2022-09-17T00:35:17;13.70;66.40
1337;DHT22;662;48.814;9.318;2022-09-17T00:37:43;13.80;66.50
1337;DHT22;662;48.814;9.318;2022-09-17T00:40:09;13.80;66.30
1337;DHT22;662;48.814;9.318;2022-09-17T00:42:35;13.80;66.20
1337;DHT22;662;48.814;9.318;2022-09-17T00:45:01;13.80;66.30
1337;DHT22;662;48.814;9.318;2022-09-17T00:50:18;13.80;66.00
1337;DHT22;662;48.814;9.318;2022-09-17T00:52:50;13.90;66.00
1337;DHT22;662;48.814;9.318;2022-09-17T00:55:38;13.80;65.90
1337;DHT22;662;48.814;9.318;2022-09-17T00:58:07;13.90;65.80
1337;DHT22;662;48.814;9.318;2022-09-17T01:00:33;13.90;65.80
1337;DHT22;662;48.814;9.318;2022-09-17T01:03:00;13.90;65.80
1337;DHT22;662;48.814;9.318;2022-09-17T01:06:08;13.90;65.80
1337;DHT22;662;48.814;9.318;2022-09-17T01:09:05;13.90;65.60
1337;DHT22;662;48.814;9.318;2022-09-17T01:12:00;13.90;65.40
1337;DHT22;662;48.814;9.318;2022-09-17T01:17:29;13.80;64.60
1337;DHT22;662;48.814;9.318;2022-09-17T01:33:39;13.60;65.60
1337;DHT22;662;48.814;9.318;2022-09-17T01:38:51;13.60;65.70
1337;DHT22;662;48.814;9.318;2022-09-17T01:47:05;13.60;65.60
1337;DHT22;662;48.814;9.318;2022-09-17T01:49:36;13.60;65.70
1337;DHT22;662;48.814;9.318;2022-09-17T01:52:05;13.60;65.70
1337;DHT22;662;48.814;9.318;2022-09-17T01:54:42;13.60;65.70
1337;DHT22;662;48.814;9.318;2022-09-17T01:57:23;13.60;65.70
1337;DHT22;662;48.814;9.318;2022-09-17T01:59:58;13.60;65.60
1337;DHT22;662;48.814;9.318;2022-09-17T02:02:35;13.60;65.70
1337;DHT22;662;48.814;9.318;2022-09-17T02:06:14;13.60;65.60
1337;DHT22;662;48.814;9.318;2022-09-17T02:09:13;13.60;65.70
1337;DHT22;662;48.814;9.318;2022-09-17T02:11:14;13.50;65.80
1337;DHT22;662;48.814;9.318;2022-09-17T02:16:23;13.50;65.80
1337;DHT22;662;48.814;9.318;2022-09-17T02:21:49;13.50;66.60
1337;DHT22;662;48.814;9.318;2022-09-17T02:24:25;13.50;65.30
1337;DHT22;662;48.814;9.318;2022-09-17T02:29:33;13.40;65.60
1337;DHT22;662;48.814;9.318;2022-09-17T02:31:59;13.40;65.90
1337;DHT22;662;48.814;9.318;2022-09-17T02:34:26;13.30;65.80
1337;DHT22;662;48.814;9.318;2022-09-17T02:36:54;13.30;65.90
1337;DHT22;662;48.814;9.318;2022-09-17T02:39:19;13.30;65.90
1337;DHT22;662;48.814;9.318;2022-09-17T02:42:02;13.30;65.90
1337;DHT22;662;48.814;9.318;2022-09-17T02:58:00;13.30;66.10
1337;DHT22;662;48.814;9.318;2022-09-17T03:00:30;13.40;66.30
1337;DHT22;662;48.814;9.318;2022-09-17T03:03:11;13.30;66.10
1337;DHT22;662;48.814;9.318;2022-09-17T03:05:39;13.40;65.80
1337;DHT22;662;48.814;9.318;2022-09-17T03:08:07;13.40;65.90
1337;DHT22;662;48.814;9.318;2022-09-17T03:10:34;13.40;66.00
1337;DHT22;662;48.814;9.318;2022-09-17T03:12:59;13.40;65.80
1337;DHT22;662;48.814;9.318;2022-09-17T03:15:25;13.40;65.80
1337;DHT22;662;48.814;9.318;2022-09-17T03:17:51;13.40;65.80
1337;DHT22;662;48.814;9.318;2022-09-17T03:20:16;13.30;65.60
1337;DHT22;662;48.814;9.318;2022-09-17T03:22:42;13.30;65.60
1337;DHT22;662;48.814;9.318;2022-09-17T03:25:10;13.30;65.50
1337;DHT22;662;48.814;9.318;2022-09-17T03:27:35;13.30;65.60
1337;DHT22;662;48.814;9.318;2022-09-17T03:30:01;13.30;65.80
1337;DHT22;662;48.814;9.318;2022-09-17T03:32:28;13.30;65.70
1337;DHT22;662;48.814;9.318;2022-09-17T03:34:53;13.30;65.60
1337;DHT22;662;48.814;9.318;2022-09-17T03:37:19;13.30;65.60
1337;DHT22;662;48.814;9.318;2022-09-17T03:39:45;13.30;65.70
1337;DHT22;662;48.814;9.318;2022-09-17T03:42:10;13.30;65.70
1337;DHT22;662;48.814;9.318;2022-09-17T03:44:36;13.30;65.80
1337;DHT22;662;48.814;9.318;2022-09-17T03:47:02;13.40;65.80
1337;DHT22;662;48.814;9.318;2022-09-17T03:49:27;13.40;65.80
1337;DHT22;662;48.814;9.318;2022-09-17T03:51:53;13.40;65.80
1337;DHT22;662;48.814;9.318;2022-09-17T03:54:19;13.40;65.70
1337;DHT22;662;48.814;9.318;2022-09-17T03:56:44;13.40;65.60
1337;DHT22;662;48.814;9.318;2022-09-17T03:59:10;13.40;65.60
1337;DHT22;662;48.814;9.318;2022-09-17T04:01:36;13.40;65.50
1337;DHT22;662;48.814;9.318;2022-09-17T04:04:02;13.30;65.30
1337;DHT22;662;48.814;9.318;2022-09-17T04:06:28;13.40;65.30
1337;DHT22;662;48.814;9.318;2022-09-17T04:08:54;13.30;65.10
1337;DHT22;662;48.814;9.318;2022-09-17T04:11:22;13.20;65.10
1337;DHT22;662;48.814;9.318;2022-09-17T04:13:47;13.20;65.30
1337;DHT22;662;48.814;9.318;2022-09-17T04:16:13;13.20;65.40
1337;DHT22;662;48.814;9.318;2022-09-17T04:18:39;13.20;65.60
1337;DHT22;662;48.814;9.318;2022-09-17T04:21:05;13.20;65.50
1337;DHT22;662;48.814;9.318;2022-09-17T04:23:31;13.20;65.60
1337;DHT22;662;48.814;9.318;2022-09-17T04:25:56;13.20;65.30
1337;DHT22;662;48.814;9.318;2022-09-17T04:28:22;13.20;65.50
1337;DHT22;662;48.814;9.318;2022-09-17T04:30:48;13.10;65.50
1337;DHT22;662;48.814;9.318;2022-09-17T04:33:13;13.10;65.60
1337;DHT22;662;48.814;9.318;2022-09-17T04:35:39;13.10;65.60
1337;DHT22;662;48.814;9.318;2022-09-17T04:38:05;13.20;65.90
1337;DHT22;662;48.814;9.318;2022-09-17T04:40:30;13.20;65.80
1337;DHT22;662;48.814;9.318;2022-09-17T04:42:57;13.20;65.90
1337;DHT22;662;48.814;9.318;2022-09-17T04:45:29;13.20;65.90
1337;DHT22;662;48.814;9.318;2022-09-17T04:47:55;13.30;66.10
1337;DHT22;662;48.814;9.318;2022-09-17T04:50:21;13.30;66.70
1337;DHT22;662;48.814;9.318;2022-09-17T04:52:48;13.30;65.90
1337;DHT22;662;48.814;9.318;2022-09-17T04:55:15;13.30;65.50
1337;DHT22;662;48.814;9.318;2022-09-17T04:57:51;13.30;65.30
1337;DHT22;662;48.814;9.318;2022-09-17T05:00:17;13.20;64.90
1337;DHT22;662;48.814;9.318;2022-09-17T05:02:45;13.20;65.00
1337;DHT22;662;48.814;9.318;2022-09-17T05:05:11;13.20;65.10
1337;DHT22;662;48.814;9.318;2022-09-17T05:07:40;13.20;65.30
1337;DHT22;662;48.814;9.318;2022-09-17T05:10:07;13.10;65.30
1337;DHT22;662;48.814;9.318;2022-09-17T05:12:33;13.10;65.30
1337;DHT22;662;48.814;9.318;2022-09-17T05:14:59;13.10;65.10
1337;DHT22;662;48.814;9.318;2022-09-17T05:17:24;13.00;64.50
1337;DHT22;662;48.814;9.318;2022-09-17T05:19:50;13.00;64.80
1337;DHT22;662;48.814;9.318;2022-09-17T05:22:17;13.00;65.00
1337;DHT22;662;48.814;9.318;2022-09-17T05:24:43;13.10;65.20
1337;DHT22;662;48.814;9.318;2022-09-17T05:27:09;13.00;64.90
1337;DHT22;662;48.814;9.318;2022-09-17T05:29:35;13.00;65.00
1337;DHT22;662;48.814;9.318;2022-09-17T05:32:02;13.00;65.00
1337;DHT22;662;48.814;9.318;2022-09-17T05:34:28;13.00;64.90
1337;DHT22;662;48.814;9.318;2022-09-17T05:36:53;13.00;65.40
1337;DHT22;662;48.814;9.318;2022-09-17T05:39:19;13.00;64.70
1337;DHT22;662;48.814;9.318;2022-09-17T05:41:47;13.00;64.60
1337;DHT22;662;48.814;9.318;2022-09-17T05:44:12;13.00;64.60
1337;DHT22;662;48.814;9.318;2022-09-17T05:46:38;13.00;64.70
1337;DHT22;662;48.814;9.318;2022-09-17T05:49:04;13.00;64.70
1337;DHT22;662;48.814;9.318;2022-09-17T05:51:29;13.00;64.50
1337;DHT22;662;48.814;9.318;2022-09-17T05:53:56;13.00;64.10
1337;DHT22;662;48.814;9.318;2022-09-17T05:56:21;13.10;64.10
1337;DHT22;662;48.814;9.318;2022-09-17T05:58:48;13.10;64.10
1337;DHT22;662;48.814;9.318;2022-09-17T06:01:14;13.10;64.10
1337;DHT22;662;48.814;9.318;2022-09-17T06:03:41;13.10;64.10
1337;DHT22;662;48.814;9.318;2022-09-17T06:06:07;13.20;64.30
1337;DHT22;662;48.814;9.318;2022-09-17T06:08:34;13.20;63.80
1337;DHT22;662;48.814;9.318;2022-09-17T06:11:05;13.30;64.00
1337;DHT22;662;48.814;9.318;2022-09-17T06:13:32;13.30;64.00
1337;DHT22;662;48.814;9.318;2022-09-17T06:15:58;13.40;64.10
1337;DHT22;662;48.814;9.318;2022-09-17T06:18:24;13.50;64.10
1337;DHT22;662;48.814;9.318;2022-09-17T06:21:00;13.50;63.70
1337;DHT22;662;48.814;9.318;2022-09-17T06:23:27;13.50;63.70
1337;DHT22;662;48.814;9.318;2022-09-17T06:25:59;13.50;63.70
1337;DHT22;662;48.814;9.318;2022-09-17T06:28:26;13.50;63.50
1337;DHT22;662;48.814;9.318;2022-09-17T06:30:52;13.50;63.50
1337;DHT22;662;48.814;9.318;2022-09-17T06:33:20;13.50;63.20
1337;DHT22;662;48.814;9.318;2022-09-17T06:35:46;13.50;63.20
1337;DHT22;662;48.814;9.318;2022-09-17T06:38:12;13.50;63.20
1337;DHT22;662;48.814;9.318;2022-09-17T06:40:38;13.50;63.10
1337;DHT22;662;48.814;9.318;2022-09-17T06:43:03;13.50;63.10
1337;DHT22;662;48.814;9.318;2022-09-17T06:45:30;13.50;62.90
1337;DHT22;662;48.814;9.318;2022-09-17T06:47:55;13.50;63.10
1337;DHT22;662;48.814;9.318;2022-09-17T06:50:21;13.60;63.40
1337;DHT22;662;48.814;9.318;2022-09-17T06:52:52;13.70;63.60
1337;DHT22;662;48.814;9.318;2022-09-17T06:55:18;13.70;63.40
1337;DHT22;662;48.814;9.318;2022-09-17T06:57:44;13.70;63.20
1337;DHT22;662;48.814;9.318;2022-09-17T07:00:11;13.70;63.00
1337;DHT22;662;48.814;9.318;2022-09-17T07:02:37;13.70;63.00
1337;DHT22;662;48.814;9.318;2022-09-17T07:05:03;13.70;63.00
1337;DHT22;662;48.814;9.318;2022-09-17T07:07:29;13.70;63.00
1337;DHT22;662;48.814;9.318;2022-09-17T07:09:55;13.60;62.50
1337;DHT22;662;48.814;9.318;2022-09-17T07:12:21;13.60;62.40
1337;DHT22;662;48.814;9.318;2022-09-17T07:14:47;13.60;62.90
1337;DHT22;662;48.814;9.318;2022-09-17T07:17:14;13.50;63.00
1337;DHT22;662;48.814;9.318;2022-09-17T07:19:40;13.50;63.00
1337;DHT22;662;48.814;9.318;2022-09-17T07:22:05;13.50;63.30
1337;DHT22;662;48.814;9.318;2022-09-17T07:24:32;13.40;63.30
1337;DHT22;662;48.814;9.318;2022-09-17T07:26:57;13.40;63.30
1337;DHT22;662;48.814;9.318;2022-09-17T07:29:23;13.50;63.70
1337;DHT22;662;48.814;9.318;2022-09-17T07:31:54;13.40;63.70
1337;DHT22;662;48.814;9.318;2022-09-17T07:34:20;13.40;64.40
1337;DHT22;662;48.814;9.318;2022-09-17T07:36:46;13.40;64.90
1337;DHT22;662;48.814;9.318;2022-09-17T07:39:12;13.40;65.40
1337;DHT22;662;48.814;9.318;2022-09-17T07:41:38;13.40;65.80
1337;DHT22;662;48.814;9.318;2022-09-17T07:44:05;13.40;66.20
1337;DHT22;662;48.814;9.318;2022-09-17T07:46:34;13.40;66.60
1337;DHT22;662;48.814;9.318;2022-09-17T07:49:00;13.50;67.00
1337;DHT22;662;48.814;9.318;2022-09-17T07:51:26;13.50;67.10
1337;DHT22;662;48.814;9.318;2022-09-17T07:53:57;13.50;67.20
1337;DHT22;662;48.814;9.318;2022-09-17T07:56:24;13.50;67.00
1337;DHT22;662;48.814;9.318;2022-09-17T07:58:51;13.40;66.90
1337;DHT22;662;48.814;9.318;2022-09-17T08:01:18;13.40;67.50
1337;DHT22;662;48.814;9.318;2022-09-17T08:03:53;13.40;68.00
1337;DHT22;662;48.814;9.318;2022-09-17T08:06:21;13.40;68.20
1337;DHT22;662;48.814;9.318;2022-09-17T08:08:47;13.50;68.30
1337;DHT22;662;48.814;9.318;2022-09-17T08:11:18;13.40;67.80
1337;DHT22;662;48.814;9.318;2022-09-17T08:13:48;13.40;68.00
1337;DHT22;662;48.814;9.318;2022-09-17T08:16:14;13.50;68.20
1337;DHT22;662;48.814;9.318;2022-09-17T08:18:41;13.50;68.50
1337;DHT22;662;48.814;9.318;2022-09-17T08:21:08;13.60;68.30
1337;DHT22;662;48.814;9.318;2022-09-17T08:23:36;13.60;68.20
1337;DHT22;662;48.814;9.318;2022-09-17T08:26:03;13.60;68.00
1337;DHT22;662;48.814;9.318;2022-09-17T08:28:30;13.60;68.00
1337;DHT22;662;48.814;9.318;2022-09-17T08:31:00;13.60;68.20
1337;DHT22;662;48.814;9.318;2022-09-17T08:33:33;13.70;68.30
1337;DHT22;662;48.814;9.318;2022-09-17T08:35:59;13.80;68.50
1337;DHT22;662;48.814;9.318;2022-09-17T08:38:26;13.80;68.30
1337;DHT22;662;48.814;9.318;2022-09-17T08:43:33;13.90;68.00
1337;DHT22;662;48.814;9.318;2022-09-17T08:46:00;14.00;67.70
1337;DHT22;662;48.814;9.318;2022-09-17T08:48:33;14.10;67.10
1337;DHT22;662;48.814;9.318;2022-09-17T08:51:22;14.30;67.50
1337;DHT22;662;48.814;9.318;2022-09-17T08:54:10;14.60;66.30
1337;DHT22;662;48.814;9.318;2022-09-17T08:56:38;15.10;65.60
1337;DHT22;662;48.814;9.318;2022-09-17T08:59:20;15.90;64.40
1337;DHT22;662;48.814;9.318;2022-09-17T09:01:58;16.80;61.90
1337;DHT22;662;48.814;9.318;2022-09-17T09:07:18;19.00;58.30
1337;DHT22;662;48.814;9.318;2022-09-17T09:12:31;19.80;52.90
1337;DHT22;662;48.814;9.318;2022-09-17T09:17:50;18.80;52.60
1337;DHT22;662;48.814;9.318;2022-09-17T09:20:23;18.20;53.30
1337;DHT22;662;48.814;9.318;2022-09-17T09:22:54;17.70;53.80
1337;DHT22;662;48.814;9.318;2022-09-17T09:25:23;17.30;54.70
1337;DHT22;662;48.814;9.318;2022-09-17T09:33:37;16.40;56.10
1337;DHT22;662;48.814;9.318;2022-09-17T09:36:10;16.30;56.90
1337;DHT22;662;48.814;9.318;2022-09-17T09:42:00;16.00;57.80
1337;DHT22;662;48.814;9.318;2022-09-17T09:44:29;15.90;58.40
1337;DHT22;662;48.814;9.318;2022-09-17T09:47:11;15.80;58.80
1337;DHT22;662;48.814;9.318;2022-09-17T10:05:39;15.60;59.10
1337;DHT22;662;48.814;9.318;2022-09-17T10:08:13;15.60;59.10
1337;DHT22;662;48.814;9.318;2022-09-17T10:10:58;15.60;59.40
1337;DHT22;662;48.814;9.318;2022-09-17T10:13:26;15.60;59.40
1337;DHT22;662;48.814;9.318;2022-09-17T10:15:52;15.70;59.40
1337;DHT22;662;48.814;9.318;2022-09-17T10:18:23;15.70;59.40
1337;DHT22;662;48.814;9.318;2022-09-17T10:20:59;15.70;59.30
1337;DHT22;662;48.814;9.318;2022-09-17T10:23:42;15.60;59.10
1337;DHT22;662;48.814;9.318;2022-09-17T10:26:22;15.60;59.10
1337;DHT22;662;48.814;9.318;2022-09-17T10:28:54;15.60;58.80
1337;DHT22;662;48.814;9.318;2022-09-17T10:31:20;15.60;58.80
1337;DHT22;662;48.814;9.318;2022-09-17T10:34:04;15.60;59.10
1337;DHT22;662;48.814;9.318;2022-09-17T10:36:42;15.50;59.30
1337;DHT22;662;48.814;9.318;2022-09-17T10:39:32;15.40;59.90
1337;DHT22;662;48.814;9.318;2022-09-17T10:42:03;15.40;60.30
1337;DHT22;662;48.814;9.318;2022-09-17T10:44:40;15.40;60.10
1337;DHT22;662;48.814;9.318;2022-09-17T10:49:48;15.70;59.30
1337;DHT22;662;48.814;9.318;2022-09-17T10:52:22;15.90;59.10
1337;DHT22;662;48.814;9.318;2022-09-17T11:00:44;16.40;57.70
1337;DHT22;662;48.814;9.318;2022-09-17T11:16:40;18.10;53.30
1337;DHT22;662;48.814;9.318;2022-09-17T11:27:44;19.50;51.20
1337;DHT22;662;48.814;9.318;2022-09-17T11:30:18;20.40;48.30
1337;DHT22;662;48.814;9.318;2022-09-17T11:32:54;21.10;47.40
1337;DHT22;662;48.814;9.318;2022-09-17T11:36:07;21.80;46.50
1337;DHT22;662;48.814;9.318;2022-09-17T11:38:23;22.50;44.50
1337;DHT22;662;48.814;9.318;2022-09-17T11:41:11;22.60;43.30
1337;DHT22;662;48.814;9.318;2022-09-17T11:43:44;22.20;43.20
1337;DHT22;662;48.814;9.318;2022-09-17T11:46:21;22.00;42.60
1337;DHT22;662;48.814;9.318;2022-09-17T11:49:10;21.80;43.40
1337;DHT22;662;48.814;9.318;2022-09-17T11:51:41;21.50;42.30
1337;DHT22;662;48.814;9.318;2022-09-17T11:54:46;21.00;42.50
1337;DHT22;662;48.814;9.318;2022-09-17T11:57:34;20.50;43.80
1337;DHT22;662;48.814;9.318;2022-09-17T12:00:13;20.10;45.10
1337;DHT22;662;48.814;9.318;2022-09-17T12:03:22;19.60;45.40
1337;DHT22;662;48.814;9.318;2022-09-17T12:05:55;19.40;46.50
1337;DHT22;662;48.814;9.318;2022-09-17T12:08:24;19.10;46.50
1337;DHT22;662;48.814;9.318;2022-09-17T12:13:43;18.50;47.10
1337;DHT22;662;48.814;9.318;2022-09-17T12:16:25;18.20;48.20
1337;DHT22;662;48.814;9.318;2022-09-17T12:21:56;17.80;51.70
1337;DHT22;662;48.814;9.318;2022-09-17T12:24:26;17.80;52.20
1337;DHT22;662;48.814;9.318;2022-09-17T12:48:25;18.90;52.20
1337;DHT22;662;48.814;9.318;2022-09-17T12:53:41;19.60;50.90
1337;DHT22;662;48.814;9.318;2022-09-17T12:56:21;19.90;50.40
1337;DHT22;662;48.814;9.318;2022-09-17T12:59:12;19.80;50.40
1337;DHT22;662;48.814;9.318;2022-09-17T13:07:42;18.70;51.40
1337;DHT22;662;48.814;9.318;2022-09-17T13:16:03;18.20;51.00
1337;DHT22;662;48.814;9.318;2022-09-17T13:18:33;18.00;50.90
1337;DHT22;662;48.814;9.318;2022-09-17T13:21:14;17.90;51.60
1337;DHT22;662;48.814;9.318;2022-09-17T13:23:45;17.70;51.60
1337;DHT22;662;48.814;9.318;2022-09-17T13:26:14;17.60;51.80
1337;DHT22;662;48.814;9.318;2022-09-17T13:28:44;17.70;52.00
1337;DHT22;662;48.814;9.318;2022-09-17T13:31:10;17.70;51.50
1337;DHT22;662;48.814;9.318;2022-09-17T13:33:57;17.90;51.30
1337;DHT22;662;48.814;9.318;2022-09-17T13:39:02;18.40;49.70
1337;DHT22;662;48.814;9.318;2022-09-17T13:41:29;18.50;50.00
1337;DHT22;662;48.814;9.318;2022-09-17T13:43:57;18.60;50.00
1337;DHT22;662;48.814;9.318;2022-09-17T13:46:26;18.60;50.10
1337;DHT22;662;48.814;9.318;2022-09-17T13:49:18;18.60;49.50
1337;DHT22;662;48.814;9.318;2022-09-17T13:51:45;18.60;49.50
1337;DHT22;662;48.814;9.318;2022-09-17T13:54:12;18.50;50.00
1337;DHT22;662;48.814;9.318;2022-09-17T13:56:45;18.40;49.60
1337;DHT22;662;48.814;9.318;2022-09-17T13:59:18;18.40;49.60
1337;DHT22;662;48.814;9.318;2022-09-17T14:09:54;18.10;50.50
1337;DHT22;662;48.814;9.318;2022-09-17T14:16:20;18.20;51.00
1337;DHT22;662;48.814;9.318;2022-09-17T14:21:03;18.10;50.30
1337;DHT22;662;48.814;9.318;2022-09-17T14:23:33;18.00;50.70
1337;DHT22;662;48.814;9.318;2022-09-17T14:26:02;17.90;51.10
1337;DHT22;662;48.814;9.318;2022-09-17T14:28:49;17.80;50.90
1337;DHT22;662;48.814;9.318;2022-09-17T14:31:29;17.80;51.60
1337;DHT22;662;48.814;9.318;2022-09-17T14:33:56;17.90;52.00
1337;DHT22;662;48.814;9.318;2022-09-17T14:36:22;18.10;52.10
1337;DHT22;662;48.814;9.318;2022-09-17T14:38:51;18.40;52.10
1337;DHT22;662;48.814;9.318;2022-09-17T14:41:22;18.60;50.70
1337;DHT22;662;48.814;9.318;2022-09-17T14:43:59;18.50;49.90
1337;DHT22;662;48.814;9.318;2022-09-17T14:46:37;18.50;49.30
1337;DHT22;662;48.814;9.318;2022-09-17T14:49:29;18.50;49.80
1337;DHT22;662;48.814;9.318;2022-09-17T14:51:57;18.40;49.80
1337;DHT22;662;48.814;9.318;2022-09-17T14:54:28;18.20;49.50
1337;DHT22;662;48.814;9.318;2022-09-17T14:59:54;17.80;49.80
1337;DHT22;662;48.814;9.318;2022-09-17T15:02:37;17.60;50.00
1337;DHT22;662;48.814;9.318;2022-09-17T15:05:16;17.40;50.50
1337;DHT22;662;48.814;9.318;2022-09-17T15:07:43;17.20;50.70
1337;DHT22;662;48.814;9.318;2022-09-17T15:10:15;17.10;51.20
1337;DHT22;662;48.814;9.318;2022-09-17T15:12:43;17.00;51.50
1337;DHT22;662;48.814;9.318;2022-09-17T15:15:21;17.00;52.00
1337;DHT22;662;48.814;9.318;2022-09-17T15:17:49;17.00;52.20
1337;DHT22;662;48.814;9.318;2022-09-17T15:20:28;16.90;52.70
1337;DHT22;662;48.814;9.318;2022-09-17T15:23:22;17.00;53.00
1337;DHT22;662;48.814;9.318;2022-09-17T15:25:51;16.90;52.40
1337;DHT22;662;48.814;9.318;2022-09-17T15:28:29;16.80;52.40
1337;DHT22;662;48.814;9.318;2022-09-17T15:30:57;16.60;53.00
1337;DHT22;662;48.814;9.318;2022-09-17T15:33:23;16.60;53.40
1337;DHT22;662;48.814;9.318;2022-09-17T15:36:22;16.60;53.70
1337;DHT22;662;48.814;9.318;2022-09-17T15:38:49;16.50;53.30
1337;DHT22;662;48.814;9.318;2022-09-17T15:41:34;16.40;53.40
1337;DHT22;662;48.814;9.318;2022-09-17T15:46:38;16.20;53.90
1337;DHT22;662;48.814;9.318;2022-09-17T15:49:25;16.10;53.40
1337;DHT22;662;48.814;9.318;2022-09-17T15:51:51;16.10;53.40
1337;DHT22;662;48.814;9.318;2022-09-17T15:54:29;16.10;53.80
1337;DHT22;662;48.814;9.318;2022-09-17T15:56:58;16.10;54.10
1337;DHT22;662;48.814;9.318;2022-09-17T15:59:29;16.10;54.10
1337;DHT22;662;48.814;9.318;2022-09-17T16:01:57;16.00;54.50
1337;DHT22;662;48.814;9.318;2022-09-17T16:04:41;16.00;54.40
1337;DHT22;662;48.814;9.318;2022-09-17T16:12:20;16.10;54.50
1337;DHT22;662;48.814;9.318;2022-09-17T16:14:49;16.10;54.40
1337;DHT22;662;48.814;9.318;2022-09-17T16:17:19;16.00;54.80
1337;DHT22;662;48.814;9.318;2022-09-17T16:19:45;15.90;54.90
1337;DHT22;662;48.814;9.318;2022-09-17T16:22:11;15.80;54.70
1337;DHT22;662;48.814;9.318;2022-09-17T16:24:37;15.80;54.60
1337;DHT22;662;48.814;9.318;2022-09-17T16:27:03;15.70;54.90
1337;DHT22;662;48.814;9.318;2022-09-17T16:29:29;15.70;55.00
1337;DHT22;662;48.814;9.318;2022-09-17T16:31:55;15.70;55.30
1337;DHT22;662;48.814;9.318;2022-09-17T16:34:21;15.70;54.20
1337;DHT22;662;48.814;9.318;2022-09-17T16:36:48;15.70;54.20
1337;DHT22;662;48.814;9.318;2022-09-17T16:39:14;15.70;54.40
1337;DHT22;662;48.814;9.318;2022-09-17T16:41:40;15.80;54.60
1337;DHT22;662;48.814;9.318;2022-09-17T16:44:05;15.80;54.90
1337;DHT22;662;48.814;9.318;2022-09-17T16:46:31;15.80;54.20
1337;DHT22;662;48.814;9.318;2022-09-17T16:48:57;15.80;54.00
1337;DHT22;662;48.814;9.318;2022-09-17T16:51:22;15.80;54.40
1337;DHT22;662;48.814;9.318;2022-09-17T16:53:48;15.80;54.70
1337;DHT22;662;48.814;9.318;2022-09-17T16:56:15;15.70;55.00
1337;DHT22;662;48.814;9.318;2022-09-17T16:58:40;15.70;54.80
1337;DHT22;662;48.814;9.318;2022-09-17T17:01:14;15.70;55.00
1337;DHT22;662;48.814;9.318;2022-09-17T17:03:40;15.60;54.90
1337;DHT22;662;48.814;9.318;2022-09-17T17:06:14;15.60;55.10
1337;DHT22;662;48.814;9.318;2022-09-17T17:08:40;15.60;55.40
1337;DHT22;662;48.814;9.318;2022-09-17T17:11:06;15.60;55.60
1337;DHT22;662;48.814;9.318;2022-09-17T17:13:32;15.50;55.60
1337;DHT22;662;48.814;9.318;2022-09-17T17:15:57;15.50;55.80
1337;DHT22;662;48.814;9.318;2022-09-17T17:18:23;15.50;55.90
1337;DHT22;662;48.814;9.318;2022-09-17T17:20:49;15.50;55.90
1337;DHT22;662;48.814;9.318;2022-09-17T17:23:15;15.50;56.10
1337;DHT22;662;48.814;9.318;2022-09-17T17:25:41;15.50;56.20
1337;DHT22;662;48.814;9.318;2022-09-17T17:28:07;15.50;56.90
1337;DHT22;662;48.814;9.318;2022-09-17T17:30:33;15.30;58.70
1337;DHT22;662;48.814;9.318;2022-09-17T17:32:58;15.20;59.40
1337;DHT22;662;48.814;9.318;2022-09-17T17:35:28;15.00;60.30
1337;DHT22;662;48.814;9.318;2022-09-17T17:37:54;14.90;61.00
1337;DHT22;662;48.814;9.318;2022-09-17T17:40:19;14.80;61.40
1337;DHT22;662;48.814;9.318;2022-09-17T17:42:50;14.70;61.90
1337;DHT22;662;48.814;9.318;2022-09-17T17:45:16;14.60;62.60
1337;DHT22;662;48.814;9.318;2022-09-17T17:47:42;14.40;63.20
1337;DHT22;662;48.814;9.318;2022-09-17T17:50:07;14.40;63.90
1337;DHT22;662;48.814;9.318;2022-09-17T17:52:35;14.20;63.60
1337;DHT22;662;48.814;9.318;2022-09-17T17:55:04;14.20;64.20
1337;DHT22;662;48.814;9.318;2022-09-17T17:57:29;14.10;64.70
1337;DHT22;662;48.814;9.318;2022-09-17T17:59:55;14.00;65.30
1337;DHT22;662;48.814;9.318;2022-09-17T18:02:21;14.00;65.80
1337;DHT22;662;48.814;9.318;2022-09-17T18:04:47;14.00;66.40
1337;DHT22;662;48.814;9.318;2022-09-17T18:07:12;14.00;66.90
1337;DHT22;662;48.814;9.318;2022-09-17T18:09:38;13.90;66.90
1337;DHT22;662;48.814;9.318;2022-09-17T18:12:04;13.90;67.40
1337;DHT22;662;48.814;9.318;2022-09-17T18:14:30;13.90;68.00
1337;DHT22;662;48.814;9.318;2022-09-17T18:16:55;13.80;68.20
1337;DHT22;662;48.814;9.318;2022-09-17T18:19:21;13.70;68.50
1337;DHT22;662;48.814;9.318;2022-09-17T18:21:47;13.70;69.00
1337;DHT22;662;48.814;9.318;2022-09-17T18:24:12;13.60;69.30
1337;DHT22;662;48.814;9.318;2022-09-17T18:26:38;13.60;69.70
1337;DHT22;662;48.814;9.318;2022-09-17T18:29:03;13.50;70.00
1337;DHT22;662;48.814;9.318;2022-09-17T18:31:31;13.40;70.40
1337;DHT22;662;48.814;9.318;2022-09-17T18:34:09;13.40;70.70
1337;DHT22;662;48.814;9.318;2022-09-17T18:36:36;13.30;71.10
1337;DHT22;662;48.814;9.318;2022-09-17T18:39:05;13.30;71.40
1337;DHT22;662;48.814;9.318;2022-09-17T18:41:32;13.30;71.80
1337;DHT22;662;48.814;9.318;2022-09-17T18:43:58;13.20;71.90
1337;DHT22;662;48.814;9.318;2022-09-17T18:46:27;13.20;72.30
1337;DHT22;662;48.814;9.318;2022-09-17T18:48:53;13.10;72.70
1337;DHT22;662;48.814;9.318;2022-09-17T18:51:19;13.10;73.10
1337;DHT22;662;48.814;9.318;2022-09-17T18:53:45;13.10;73.50
1337;DHT22;662;48.814;9.318;2022-09-17T18:56:25;13.10;73.80
1337;DHT22;662;48.814;9.318;2022-09-17T18:58:54;13.10;74.60
1337;DHT22;662;48.814;9.318;2022-09-17T19:01:23;13.10;74.10
1337;DHT22;662;48.814;9.318;2022-09-17T19:03:49;13.10;74.10
1337;DHT22;662;48.814;9.318;2022-09-17T19:06:16;13.00;74.10
1337;DHT22;662;48.814;9.318;2022-09-17T19:08:43;13.00;74.30
1337;DHT22;662;48.814;9.318;2022-09-17T19:11:10;13.00;74.30
1337;DHT22;662;48.814;9.318;2022-09-17T19:13:41;12.90;74.40
1337;DHT22;662;48.814;9.318;2022-09-17T19:16:09;12.90;74.70
1337;DHT22;662;48.814;9.318;2022-09-17T19:18:35;12.90;74.90
1337;DHT22;662;48.814;9.318;2022-09-17T19:21:10;12.90;75.00
1337;DHT22;662;48.814;9.318;2022-09-17T19:23:44;12.90;75.10
1337;DHT22;662;48.814;9.318;2022-09-17T19:26:15;12.90;75.10
1337;DHT22;662;48.814;9.318;2022-09-17T19:28:41;12.80;74.90
1337;DHT22;662;48.814;9.318;2022-09-17T19:31:08;12.80;74.80
1337;DHT22;662;48.814;9.318;2022-09-17T19:33:35;12.80;73.80
1337;DHT22;662;48.814;9.318;2022-09-17T19:36:02;12.70;72.80
1337;DHT22;662;48.814;9.318;2022-09-17T19:38:28;12.70;72.20
1337;DHT22;662;48.814;9.318;2022-09-17T19:40:58;12.70;70.70